sensor_id;sensor_type;location;lat;lon;timestamp;temperature;humidity
15040;DHT22;7617;47.366;8.558;2024-01-30T00:01:44;5.70;97.00
15040;DHT22;7617;47.366;8.558;2024-01-30T00:04:14;5.70;96.60
15040;DHT22;7617;47.366;8.558;2024-01-30T00:06:43;5.60;96.80
15040;DHT22;7617;47.366;8.558;2024-01-30T00:09:12;5.60;96.60
15040;DHT22;7617;47.366;8.558;2024-01-30T00:11:40;5.50;96.80
15040;DHT22;7617;47.366;8.558;2024-01-30T00:14:08;5.60;96.80
15040;DHT22;7617;47.366;8.558;2024-01-30T00:16:36;5.60;97.00
15040;DHT22;7617;47.366;8.558;2024-01-30T00:19:05;5.50;96.90
15040;DHT22;7617;47.366;8.558;2024-01-30T00:21:34;5.50;97.10
15040;DHT22;7617;47.366;8.558;2024-01-30T00:24:03;5.40;96.90
15040;DHT22;7617;47.366;8.558;2024-01-30T00:26:31;5.40;97.20
15040;DHT22;7617;47.366;8.558;2024-01-30T00:28:59;5.40;97.20
15040;DHT22;7617;47.366;8.558;2024-01-30T00:31:27;5.40;97.20
15040;DHT22;7617;47.366;8.558;2024-01-30T00:33:55;5.40;97.30
15040;DHT22;7617;47.366;8.558;2024-01-30T00:36:24;5.40;97.30
15040;DHT22;7617;47.366;8.558;2024-01-30T00:38:53;5.40;97.20
15040;DHT22;7617;47.366;8.558;2024-01-30T00:41:21;5.40;97.30
15040;DHT22;7617;47.366;8.558;2024-01-30T00:43:51;5.50;97.10
15040;DHT22;7617;47.366;8.558;2024-01-30T00:46:19;5.50;97.00
15040;DHT22;7617;47.366;8.558;2024-01-30T00:48:47;5.50;97.00
15040;DHT22;7617;47.366;8.558;2024-01-30T00:51:16;5.40;97.10
15040;DHT22;7617;47.366;8.558;2024-01-30T00:53:45;5.30;97.20
15040;DHT22;7617;47.366;8.558;2024-01-30T00:56:14;5.30;97.40
15040;DHT22;7617;47.366;8.558;2024-01-30T00:58:45;5.30;97.30
15040;DHT22;7617;47.366;8.558;2024-01-30T01:01:13;5.30;97.30
15040;DHT22;7617;47.366;8.558;2024-01-30T01:03:42;5.40;97.30
15040;DHT22;7617;47.366;8.558;2024-01-30T01:06:10;5.40;97.20
15040;DHT22;7617;47.366;8.558;2024-01-30T01:08:39;5.50;97.00
15040;DHT22;7617;47.366;8.558;2024-01-30T01:11:07;5.40;96.90
15040;DHT22;7617;47.366;8.558;2024-01-30T01:13:36;5.20;97.10
15040;DHT22;7617;47.366;8.558;2024-01-30T01:16:04;5.20;97.30
15040;DHT22;7617;47.366;8.558;2024-01-30T01:18:33;5.20;97.20
15040;DHT22;7617;47.366;8.558;2024-01-30T01:21:01;5.20;97.30
15040;DHT22;7617;47.366;8.558;2024-01-30T01:23:29;5.20;97.40
15040;DHT22;7617;47.366;8.558;2024-01-30T01:25:57;5.20;97.30
15040;DHT22;7617;47.366;8.558;2024-01-30T01:28:27;5.30;97.30
15040;DHT22;7617;47.366;8.558;2024-01-30T01:30:57;5.40;97.10
15040;DHT22;7617;47.366;8.558;2024-01-30T01:33:31;5.40;97.30
15040;DHT22;7617;47.366;8.558;2024-01-30T01:36:00;5.50;97.00
15040;DHT22;7617;47.366;8.558;2024-01-30T01:38:29;5.40;96.90
15040;DHT22;7617;47.366;8.558;2024-01-30T01:40:57;5.20;97.10
15040;DHT22;7617;47.366;8.558;2024-01-30T01:43:25;5.20;97.20
15040;DHT22;7617;47.366;8.558;2024-01-30T01:45:54;5.30;97.30
15040;DHT22;7617;47.366;8.558;2024-01-30T01:48:23;5.30;97.10
15040;DHT22;7617;47.366;8.558;2024-01-30T01:50:52;5.20;97.00
15040;DHT22;7617;47.366;8.558;2024-01-30T01:53:21;5.20;97.30
15040;DHT22;7617;47.366;8.558;2024-01-30T01:55:49;5.10;97.10
15040;DHT22;7617;47.366;8.558;2024-01-30T01:58:20;5.00;97.20
15040;DHT22;7617;47.366;8.558;2024-01-30T02:00:49;5.00;97.40
15040;DHT22;7617;47.366;8.558;2024-01-30T02:03:18;5.00;97.30
15040;DHT22;7617;47.366;8.558;2024-01-30T02:05:50;5.00;97.30
15040;DHT22;7617;47.366;8.558;2024-01-30T02:08:18;5.00;97.20
15040;DHT22;7617;47.366;8.558;2024-01-30T02:10:47;5.00;97.40
15040;DHT22;7617;47.366;8.558;2024-01-30T02:13:15;5.00;97.50
15040;DHT22;7617;47.366;8.558;2024-01-30T02:15:43;5.00;97.50
15040;DHT22;7617;47.366;8.558;2024-01-30T02:18:11;5.10;97.40
15040;DHT22;7617;47.366;8.558;2024-01-30T02:20:40;5.10;97.10
15040;DHT22;7617;47.366;8.558;2024-01-30T02:23:10;5.10;97.20
15040;DHT22;7617;47.366;8.558;2024-01-30T02:25:40;5.10;97.20
15040;DHT22;7617;47.366;8.558;2024-01-30T02:28:11;5.00;97.20
15040;DHT22;7617;47.366;8.558;2024-01-30T02:30:40;5.00;97.30
15040;DHT22;7617;47.366;8.558;2024-01-30T02:33:08;4.90;97.50
15040;DHT22;7617;47.366;8.558;2024-01-30T02:35:36;4.80;97.30
15040;DHT22;7617;47.366;8.558;2024-01-30T02:38:04;4.80;97.30
15040;DHT22;7617;47.366;8.558;2024-01-30T02:40:34;4.90;97.50
15040;DHT22;7617;47.366;8.558;2024-01-30T02:43:03;4.80;97.60
15040;DHT22;7617;47.366;8.558;2024-01-30T02:45:31;4.90;97.70
15040;DHT22;7617;47.366;8.558;2024-01-30T02:47:59;4.90;97.50
15040;DHT22;7617;47.366;8.558;2024-01-30T02:50:28;4.80;97.50
15040;DHT22;7617;47.366;8.558;2024-01-30T02:52:55;4.70;97.70
15040;DHT22;7617;47.366;8.558;2024-01-30T02:55:24;4.70;97.70
15040;DHT22;7617;47.366;8.558;2024-01-30T02:57:53;4.70;97.80
15040;DHT22;7617;47.366;8.558;2024-01-30T03:00:21;4.80;97.90
15040;DHT22;7617;47.366;8.558;2024-01-30T03:02:50;4.80;97.80
15040;DHT22;7617;47.366;8.558;2024-01-30T03:05:18;4.90;97.90
15040;DHT22;7617;47.366;8.558;2024-01-30T03:07:46;4.90;97.80
15040;DHT22;7617;47.366;8.558;2024-01-30T03:10:15;5.00;97.70
15040;DHT22;7617;47.366;8.558;2024-01-30T03:12:43;5.00;97.50
15040;DHT22;7617;47.366;8.558;2024-01-30T03:15:13;4.90;97.50
15040;DHT22;7617;47.366;8.558;2024-01-30T03:17:41;4.90;97.50
15040;DHT22;7617;47.366;8.558;2024-01-30T03:20:10;4.90;97.60
15040;DHT22;7617;47.366;8.558;2024-01-30T03:22:39;4.80;97.70
15040;DHT22;7617;47.366;8.558;2024-01-30T03:25:07;4.80;97.60
15040;DHT22;7617;47.366;8.558;2024-01-30T03:27:35;4.80;97.50
15040;DHT22;7617;47.366;8.558;2024-01-30T03:30:05;4.70;97.40
15040;DHT22;7617;47.366;8.558;2024-01-30T03:32:35;4.70;97.70
15040;DHT22;7617;47.366;8.558;2024-01-30T03:35:03;4.70;97.60
15040;DHT22;7617;47.366;8.558;2024-01-30T03:37:32;4.60;97.70
15040;DHT22;7617;47.366;8.558;2024-01-30T03:40:00;4.60;97.60
15040;DHT22;7617;47.366;8.558;2024-01-30T03:42:29;4.60;97.80
15040;DHT22;7617;47.366;8.558;2024-01-30T03:44:57;4.70;97.80
15040;DHT22;7617;47.366;8.558;2024-01-30T03:47:25;4.70;97.80
15040;DHT22;7617;47.366;8.558;2024-01-30T03:49:54;4.70;97.90
15040;DHT22;7617;47.366;8.558;2024-01-30T03:52:23;4.80;97.80
15040;DHT22;7617;47.366;8.558;2024-01-30T03:54:51;4.80;97.80
15040;DHT22;7617;47.366;8.558;2024-01-30T03:57:19;4.80;97.60
15040;DHT22;7617;47.366;8.558;2024-01-30T03:59:48;4.80;97.60
15040;DHT22;7617;47.366;8.558;2024-01-30T04:02:15;4.70;97.60
15040;DHT22;7617;47.366;8.558;2024-01-30T04:04:45;4.70;97.80
15040;DHT22;7617;47.366;8.558;2024-01-30T04:07:14;4.70;97.60
15040;DHT22;7617;47.366;8.558;2024-01-30T04:09:43;4.70;97.70
15040;DHT22;7617;47.366;8.558;2024-01-30T04:12:11;4.70;97.80
15040;DHT22;7617;47.366;8.558;2024-01-30T04:14:39;4.70;97.60
15040;DHT22;7617;47.366;8.558;2024-01-30T04:17:07;4.70;97.70
15040;DHT22;7617;47.366;8.558;2024-01-30T04:19:37;4.70;97.70
15040;DHT22;7617;47.366;8.558;2024-01-30T04:22:06;4.70;97.70
15040;DHT22;7617;47.366;8.558;2024-01-30T04:24:36;4.70;97.70
15040;DHT22;7617;47.366;8.558;2024-01-30T04:27:05;4.70;97.60
15040;DHT22;7617;47.366;8.558;2024-01-30T04:29:34;4.70;97.60
15040;DHT22;7617;47.366;8.558;2024-01-30T04:32:02;4.70;97.70
15040;DHT22;7617;47.366;8.558;2024-01-30T04:34:31;4.60;97.50
15040;DHT22;7617;47.366;8.558;2024-01-30T04:36:59;4.60;97.60
15040;DHT22;7617;47.366;8.558;2024-01-30T04:39:27;4.60;97.80
15040;DHT22;7617;47.366;8.558;2024-01-30T04:41:57;4.60;97.70
15040;DHT22;7617;47.366;8.558;2024-01-30T04:44:26;4.70;97.70
15040;DHT22;7617;47.366;8.558;2024-01-30T04:46:54;3.80;97.40
15040;DHT22;7617;47.366;8.558;2024-01-30T04:49:26;4.60;97.60
15040;DHT22;7617;47.366;8.558;2024-01-30T04:51:54;4.60;97.80
15040;DHT22;7617;47.366;8.558;2024-01-30T04:54:22;4.60;97.80
15040;DHT22;7617;47.366;8.558;2024-01-30T04:56:51;4.60;98.00
15040;DHT22;7617;47.366;8.558;2024-01-30T04:59:20;4.70;98.00
15040;DHT22;7617;47.366;8.558;2024-01-30T05:01:49;4.70;97.90
15040;DHT22;7617;47.366;8.558;2024-01-30T05:04:18;4.80;97.50
15040;DHT22;7617;47.366;8.558;2024-01-30T05:06:46;4.80;97.70
15040;DHT22;7617;47.366;8.558;2024-01-30T05:09:14;4.70;97.70
15040;DHT22;7617;47.366;8.558;2024-01-30T05:11:43;4.70;97.80
15040;DHT22;7617;47.366;8.558;2024-01-30T05:14:11;4.60;97.60
15040;DHT22;7617;47.366;8.558;2024-01-30T05:16:40;4.60;97.80
15040;DHT22;7617;47.366;8.558;2024-01-30T05:19:10;4.60;97.90
15040;DHT22;7617;47.366;8.558;2024-01-30T05:21:38;4.60;97.90
15040;DHT22;7617;47.366;8.558;2024-01-30T05:24:07;4.60;97.70
15040;DHT22;7617;47.366;8.558;2024-01-30T05:26:37;4.60;98.00
15040;DHT22;7617;47.366;8.558;2024-01-30T05:29:06;4.70;97.80
15040;DHT22;7617;47.366;8.558;2024-01-30T05:31:35;4.60;97.80
15040;DHT22;7617;47.366;8.558;2024-01-30T05:34:04;4.70;97.50
15040;DHT22;7617;47.366;8.558;2024-01-30T05:36:34;4.60;97.70
15040;DHT22;7617;47.366;8.558;2024-01-30T05:39:02;4.60;97.50
15040;DHT22;7617;47.366;8.558;2024-01-30T05:41:34;4.50;97.50
15040;DHT22;7617;47.366;8.558;2024-01-30T05:44:02;4.50;97.30
15040;DHT22;7617;47.366;8.558;2024-01-30T05:46:31;4.50;97.60
15040;DHT22;7617;47.366;8.558;2024-01-30T05:48:59;4.50;97.60
15040;DHT22;7617;47.366;8.558;2024-01-30T05:51:28;4.50;97.40
15040;DHT22;7617;47.366;8.558;2024-01-30T05:53:57;4.50;97.40
15040;DHT22;7617;47.366;8.558;2024-01-30T05:56:25;4.40;97.30
15040;DHT22;7617;47.366;8.558;2024-01-30T05:58:54;4.50;97.40
15040;DHT22;7617;47.366;8.558;2024-01-30T06:01:22;4.40;97.30
15040;DHT22;7617;47.366;8.558;2024-01-30T06:03:51;4.40;97.30
15040;DHT22;7617;47.366;8.558;2024-01-30T06:06:19;4.30;97.30
15040;DHT22;7617;47.366;8.558;2024-01-30T06:08:49;4.20;97.40
15040;DHT22;7617;47.366;8.558;2024-01-30T06:11:17;4.30;97.50
15040;DHT22;7617;47.366;8.558;2024-01-30T06:13:46;4.30;97.60
15040;DHT22;7617;47.366;8.558;2024-01-30T06:16:14;4.40;97.40
15040;DHT22;7617;47.366;8.558;2024-01-30T06:18:43;4.40;97.30
15040;DHT22;7617;47.366;8.558;2024-01-30T06:21:11;4.40;97.30
15040;DHT22;7617;47.366;8.558;2024-01-30T06:23:40;4.40;97.20
15040;DHT22;7617;47.366;8.558;2024-01-30T06:26:09;4.30;97.20
15040;DHT22;7617;47.366;8.558;2024-01-30T06:28:37;4.30;97.30
15040;DHT22;7617;47.366;8.558;2024-01-30T06:31:06;4.30;97.30
15040;DHT22;7617;47.366;8.558;2024-01-30T06:33:34;4.40;97.40
15040;DHT22;7617;47.366;8.558;2024-01-30T06:36:03;4.40;97.40
15040;DHT22;7617;47.366;8.558;2024-01-30T06:38:31;4.30;97.30
15040;DHT22;7617;47.366;8.558;2024-01-30T06:40:59;4.40;97.30
15040;DHT22;7617;47.366;8.558;2024-01-30T06:43:29;4.40;97.30
15040;DHT22;7617;47.366;8.558;2024-01-30T06:45:57;4.40;97.30
15040;DHT22;7617;47.366;8.558;2024-01-30T06:48:26;4.40;97.40
15040;DHT22;7617;47.366;8.558;2024-01-30T06:50:54;4.50;97.40
15040;DHT22;7617;47.366;8.558;2024-01-30T06:53:24;4.50;97.40
15040;DHT22;7617;47.366;8.558;2024-01-30T06:55:53;4.50;97.40
15040;DHT22;7617;47.366;8.558;2024-01-30T06:58:21;4.50;97.40
15040;DHT22;7617;47.366;8.558;2024-01-30T07:00:51;4.50;97.40
15040;DHT22;7617;47.366;8.558;2024-01-30T07:03:20;4.50;97.40
15040;DHT22;7617;47.366;8.558;2024-01-30T07:05:49;4.50;97.40
15040;DHT22;7617;47.366;8.558;2024-01-30T07:08:17;4.50;97.40
15040;DHT22;7617;47.366;8.558;2024-01-30T07:10:45;4.50;97.40
15040;DHT22;7617;47.366;8.558;2024-01-30T07:13:14;4.50;97.30
15040;DHT22;7617;47.366;8.558;2024-01-30T07:15:43;4.50;97.40
15040;DHT22;7617;47.366;8.558;2024-01-30T07:18:13;4.50;97.40
15040;DHT22;7617;47.366;8.558;2024-01-30T07:20:41;4.60;97.50
15040;DHT22;7617;47.366;8.558;2024-01-30T07:23:13;4.60;97.40
15040;DHT22;7617;47.366;8.558;2024-01-30T07:25:44;4.60;97.40
15040;DHT22;7617;47.366;8.558;2024-01-30T07:28:15;4.60;97.30
15040;DHT22;7617;47.366;8.558;2024-01-30T07:30:45;4.60;97.30
15040;DHT22;7617;47.366;8.558;2024-01-30T07:33:16;4.60;97.30
15040;DHT22;7617;47.366;8.558;2024-01-30T07:35:45;4.70;97.20
15040;DHT22;7617;47.366;8.558;2024-01-30T07:38:13;4.60;97.10
15040;DHT22;7617;47.366;8.558;2024-01-30T07:40:42;4.70;97.30
15040;DHT22;7617;47.366;8.558;2024-01-30T07:43:10;4.70;97.40
15040;DHT22;7617;47.366;8.558;2024-01-30T07:45:39;4.80;97.40
15040;DHT22;7617;47.366;8.558;2024-01-30T07:48:08;4.80;97.30
15040;DHT22;7617;47.366;8.558;2024-01-30T07:50:38;4.80;97.30
15040;DHT22;7617;47.366;8.558;2024-01-30T07:53:06;4.90;97.30
15040;DHT22;7617;47.366;8.558;2024-01-30T07:55:34;4.90;97.20
15040;DHT22;7617;47.366;8.558;2024-01-30T07:58:03;4.90;97.20
15040;DHT22;7617;47.366;8.558;2024-01-30T08:00:31;5.00;97.20
15040;DHT22;7617;47.366;8.558;2024-01-30T08:03:00;5.00;97.10
15040;DHT22;7617;47.366;8.558;2024-01-30T08:05:28;5.00;97.00
15040;DHT22;7617;47.366;8.558;2024-01-30T08:07:58;5.00;97.10
15040;DHT22;7617;47.366;8.558;2024-01-30T08:10:26;5.10;97.10
15040;DHT22;7617;47.366;8.558;2024-01-30T08:12:54;5.10;97.10
15040;DHT22;7617;47.366;8.558;2024-01-30T08:15:22;5.20;97.10
15040;DHT22;7617;47.366;8.558;2024-01-30T08:17:51;5.20;97.00
15040;DHT22;7617;47.366;8.558;2024-01-30T08:20:23;5.20;96.90
15040;DHT22;7617;47.366;8.558;2024-01-30T08:22:52;5.30;97.00
15040;DHT22;7617;47.366;8.558;2024-01-30T08:25:22;5.40;96.90
15040;DHT22;7617;47.366;8.558;2024-01-30T08:27:50;5.50;96.80
15040;DHT22;7617;47.366;8.558;2024-01-30T08:30:19;5.50;96.70
15040;DHT22;7617;47.366;8.558;2024-01-30T08:32:47;5.60;96.60
15040;DHT22;7617;47.366;8.558;2024-01-30T08:35:16;5.70;96.60
15040;DHT22;7617;47.366;8.558;2024-01-30T08:37:44;5.80;96.50
15040;DHT22;7617;47.366;8.558;2024-01-30T08:40:13;5.80;96.40
15040;DHT22;7617;47.366;8.558;2024-01-30T08:42:42;5.90;96.30
15040;DHT22;7617;47.366;8.558;2024-01-30T08:45:11;6.00;96.40
15040;DHT22;7617;47.366;8.558;2024-01-30T08:47:40;6.10;96.30
15040;DHT22;7617;47.366;8.558;2024-01-30T08:50:08;6.10;96.10
15040;DHT22;7617;47.366;8.558;2024-01-30T08:52:37;6.20;96.00
15040;DHT22;7617;47.366;8.558;2024-01-30T08:55:06;6.20;96.00
15040;DHT22;7617;47.366;8.558;2024-01-30T08:57:34;6.20;96.00
15040;DHT22;7617;47.366;8.558;2024-01-30T09:00:06;6.30;96.00
15040;DHT22;7617;47.366;8.558;2024-01-30T09:02:36;6.30;95.90
15040;DHT22;7617;47.366;8.558;2024-01-30T09:05:05;6.40;95.80
15040;DHT22;7617;47.366;8.558;2024-01-30T09:07:33;6.40;95.80
15040;DHT22;7617;47.366;8.558;2024-01-30T09:10:01;6.50;95.80
15040;DHT22;7617;47.366;8.558;2024-01-30T09:12:30;6.60;95.80
15040;DHT22;7617;47.366;8.558;2024-01-30T09:15:01;6.60;95.70
15040;DHT22;7617;47.366;8.558;2024-01-30T09:17:31;6.70;95.70
15040;DHT22;7617;47.366;8.558;2024-01-30T09:20:00;6.80;95.60
15040;DHT22;7617;47.366;8.558;2024-01-30T09:22:28;6.80;95.50
15040;DHT22;7617;47.366;8.558;2024-01-30T09:24:56;6.80;95.50
15040;DHT22;7617;47.366;8.558;2024-01-30T09:27:24;6.90;95.40
15040;DHT22;7617;47.366;8.558;2024-01-30T09:29:53;7.00;95.40
15040;DHT22;7617;47.366;8.558;2024-01-30T09:32:21;7.00;95.30
15040;DHT22;7617;47.366;8.558;2024-01-30T09:34:50;7.20;95.30
15040;DHT22;7617;47.366;8.558;2024-01-30T09:37:18;7.20;95.20
15040;DHT22;7617;47.366;8.558;2024-01-30T09:39:49;7.30;95.20
15040;DHT22;7617;47.366;8.558;2024-01-30T09:42:24;7.40;95.20
15040;DHT22;7617;47.366;8.558;2024-01-30T09:44:54;7.50;95.20
15040;DHT22;7617;47.366;8.558;2024-01-30T09:47:22;7.60;95.10
15040;DHT22;7617;47.366;8.558;2024-01-30T09:49:52;7.60;95.10
15040;DHT22;7617;47.366;8.558;2024-01-30T09:52:20;7.70;95.10
15040;DHT22;7617;47.366;8.558;2024-01-30T09:54:49;7.80;95.00
15040;DHT22;7617;47.366;8.558;2024-01-30T09:57:18;7.90;94.80
15040;DHT22;7617;47.366;8.558;2024-01-30T09:59:48;8.00;94.80
15040;DHT22;7617;47.366;8.558;2024-01-30T10:02:18;8.10;94.60
15040;DHT22;7617;47.366;8.558;2024-01-30T10:04:48;8.10;94.60
15040;DHT22;7617;47.366;8.558;2024-01-30T10:07:17;8.10;94.40
15040;DHT22;7617;47.366;8.558;2024-01-30T10:09:46;8.10;94.20
15040;DHT22;7617;47.366;8.558;2024-01-30T10:12:16;8.20;94.20
15040;DHT22;7617;47.366;8.558;2024-01-30T10:14:44;8.20;94.30
15040;DHT22;7617;47.366;8.558;2024-01-30T10:17:12;8.30;94.30
15040;DHT22;7617;47.366;8.558;2024-01-30T10:19:54;8.30;94.20
15040;DHT22;7617;47.366;8.558;2024-01-30T10:22:24;8.30;94.10
15040;DHT22;7617;47.366;8.558;2024-01-30T10:24:52;8.30;94.10
15040;DHT22;7617;47.366;8.558;2024-01-30T10:27:25;8.40;94.10
15040;DHT22;7617;47.366;8.558;2024-01-30T10:29:53;8.40;94.00
15040;DHT22;7617;47.366;8.558;2024-01-30T10:32:21;8.50;94.10
15040;DHT22;7617;47.366;8.558;2024-01-30T10:34:49;8.60;94.00
15040;DHT22;7617;47.366;8.558;2024-01-30T10:37:19;8.70;93.80
15040;DHT22;7617;47.366;8.558;2024-01-30T10:39:53;8.80;93.80
15040;DHT22;7617;47.366;8.558;2024-01-30T10:42:26;8.80;93.60
15040;DHT22;7617;47.366;8.558;2024-01-30T10:44:59;8.90;93.10
15040;DHT22;7617;47.366;8.558;2024-01-30T10:47:29;8.90;93.40
15040;DHT22;7617;47.366;8.558;2024-01-30T10:49:57;8.90;93.40
15040;DHT22;7617;47.366;8.558;2024-01-30T10:52:26;9.00;93.30
15040;DHT22;7617;47.366;8.558;2024-01-30T10:54:58;9.00;93.20
15040;DHT22;7617;47.366;8.558;2024-01-30T10:57:27;9.10;93.20
15040;DHT22;7617;47.366;8.558;2024-01-30T10:59:56;9.20;93.10
15040;DHT22;7617;47.366;8.558;2024-01-30T11:02:26;9.30;92.90
15040;DHT22;7617;47.366;8.558;2024-01-30T11:04:57;9.40;92.80
15040;DHT22;7617;47.366;8.558;2024-01-30T11:07:27;9.40;92.70
15040;DHT22;7617;47.366;8.558;2024-01-30T11:10:01;9.50;92.60
15040;DHT22;7617;47.366;8.558;2024-01-30T11:12:32;9.50;92.50
15040;DHT22;7617;47.366;8.558;2024-01-30T11:15:06;9.60;92.30
15040;DHT22;7617;47.366;8.558;2024-01-30T11:17:50;9.70;92.20
15040;DHT22;7617;47.366;8.558;2024-01-30T11:20:21;9.70;92.00
15040;DHT22;7617;47.366;8.558;2024-01-30T11:22:52;9.80;92.20
15040;DHT22;7617;47.366;8.558;2024-01-30T11:25:23;9.80;91.70
15040;DHT22;7617;47.366;8.558;2024-01-30T11:27:52;9.80;91.70
15040;DHT22;7617;47.366;8.558;2024-01-30T11:30:23;9.90;92.10
15040;DHT22;7617;47.366;8.558;2024-01-30T11:33:02;9.90;91.80
15040;DHT22;7617;47.366;8.558;2024-01-30T11:35:34;10.00;91.70
15040;DHT22;7617;47.366;8.558;2024-01-30T11:38:03;10.10;91.70
15040;DHT22;7617;47.366;8.558;2024-01-30T11:40:35;10.20;91.70
15040;DHT22;7617;47.366;8.558;2024-01-30T11:43:05;10.30;91.50
15040;DHT22;7617;47.366;8.558;2024-01-30T11:45:34;10.40;91.40
15040;DHT22;7617;47.366;8.558;2024-01-30T11:48:04;12.10;91.80
15040;DHT22;7617;47.366;8.558;2024-01-30T11:50:33;10.40;91.00
15040;DHT22;7617;47.366;8.558;2024-01-30T11:53:02;10.50;90.60
15040;DHT22;7617;47.366;8.558;2024-01-30T11:55:31;10.60;90.10
15040;DHT22;7617;47.366;8.558;2024-01-30T11:58:03;10.60;90.30
15040;DHT22;7617;47.366;8.558;2024-01-30T12:00:32;10.60;90.20
15040;DHT22;7617;47.366;8.558;2024-01-30T12:03:02;10.70;89.90
15040;DHT22;7617;47.366;8.558;2024-01-30T12:05:32;10.80;89.30
15040;DHT22;7617;47.366;8.558;2024-01-30T12:08:00;10.90;89.00
15040;DHT22;7617;47.366;8.558;2024-01-30T12:10:29;11.10;88.90
15040;DHT22;7617;47.366;8.558;2024-01-30T12:12:58;11.10;88.40
15040;DHT22;7617;47.366;8.558;2024-01-30T12:15:28;11.20;88.50
15040;DHT22;7617;47.366;8.558;2024-01-30T12:18:04;11.40;88.80
15040;DHT22;7617;47.366;8.558;2024-01-30T12:20:34;11.50;88.30
15040;DHT22;7617;47.366;8.558;2024-01-30T12:23:02;11.60;87.90
15040;DHT22;7617;47.366;8.558;2024-01-30T12:25:31;11.70;87.60
15040;DHT22;7617;47.366;8.558;2024-01-30T12:27:59;11.70;87.10
15040;DHT22;7617;47.366;8.558;2024-01-30T12:30:29;11.80;87.20
15040;DHT22;7617;47.366;8.558;2024-01-30T12:32:57;11.90;87.10
15040;DHT22;7617;47.366;8.558;2024-01-30T12:35:26;12.00;87.00
15040;DHT22;7617;47.366;8.558;2024-01-30T12:37:59;12.10;86.50
15040;DHT22;7617;47.366;8.558;2024-01-30T12:40:27;12.20;86.60
15040;DHT22;7617;47.366;8.558;2024-01-30T12:42:56;12.30;86.60
15040;DHT22;7617;47.366;8.558;2024-01-30T12:45:25;12.30;86.00
15040;DHT22;7617;47.366;8.558;2024-01-30T12:47:53;12.40;85.70
15040;DHT22;7617;47.366;8.558;2024-01-30T12:50:22;13.40;85.80
15040;DHT22;7617;47.366;8.558;2024-01-30T12:52:50;12.50;84.20
15040;DHT22;7617;47.366;8.558;2024-01-30T12:55:18;12.60;84.00
15040;DHT22;7617;47.366;8.558;2024-01-30T12:57:46;12.60;84.40
15040;DHT22;7617;47.366;8.558;2024-01-30T13:00:15;12.70;84.10
15040;DHT22;7617;47.366;8.558;2024-01-30T13:02:44;12.70;84.00
15040;DHT22;7617;47.366;8.558;2024-01-30T13:05:14;12.80;83.70
15040;DHT22;7617;47.366;8.558;2024-01-30T13:07:43;12.80;84.10
15040;DHT22;7617;47.366;8.558;2024-01-30T13:10:11;12.90;84.30
15040;DHT22;7617;47.366;8.558;2024-01-30T13:12:39;12.90;83.40
15040;DHT22;7617;47.366;8.558;2024-01-30T13:15:07;12.90;82.90
15040;DHT22;7617;47.366;8.558;2024-01-30T13:17:38;12.90;83.40
15040;DHT22;7617;47.366;8.558;2024-01-30T13:20:07;12.90;83.30
15040;DHT22;7617;47.366;8.558;2024-01-30T13:22:39;12.90;82.80
15040;DHT22;7617;47.366;8.558;2024-01-30T13:25:08;13.00;82.00
15040;DHT22;7617;47.366;8.558;2024-01-30T13:27:36;13.00;82.40
15040;DHT22;7617;47.366;8.558;2024-01-30T13:30:07;13.00;81.90
15040;DHT22;7617;47.366;8.558;2024-01-30T13:32:36;13.00;81.60
15040;DHT22;7617;47.366;8.558;2024-01-30T13:35:05;12.90;80.40
15040;DHT22;7617;47.366;8.558;2024-01-30T13:37:33;12.90;81.10
15040;DHT22;7617;47.366;8.558;2024-01-30T13:40:05;12.90;81.10
15040;DHT22;7617;47.366;8.558;2024-01-30T13:42:37;12.90;80.80
15040;DHT22;7617;47.366;8.558;2024-01-30T13:45:06;13.00;79.60
15040;DHT22;7617;47.366;8.558;2024-01-30T13:47:37;13.00;80.00
15040;DHT22;7617;47.366;8.558;2024-01-30T13:50:05;12.90;79.60
15040;DHT22;7617;47.366;8.558;2024-01-30T13:52:35;12.90;80.20
15040;DHT22;7617;47.366;8.558;2024-01-30T13:55:12;12.90;80.40
15040;DHT22;7617;47.366;8.558;2024-01-30T13:57:40;12.90;80.90
15040;DHT22;7617;47.366;8.558;2024-01-30T14:00:10;12.90;80.70
15040;DHT22;7617;47.366;8.558;2024-01-30T14:02:38;12.90;80.80
15040;DHT22;7617;47.366;8.558;2024-01-30T14:05:07;12.90;80.90
15040;DHT22;7617;47.366;8.558;2024-01-30T14:07:37;12.90;81.50
15040;DHT22;7617;47.366;8.558;2024-01-30T14:10:09;12.90;81.50
15040;DHT22;7617;47.366;8.558;2024-01-30T14:12:43;12.90;81.30
15040;DHT22;7617;47.366;8.558;2024-01-30T14:15:12;12.90;80.90
15040;DHT22;7617;47.366;8.558;2024-01-30T14:17:54;12.90;81.50
15040;DHT22;7617;47.366;8.558;2024-01-30T14:20:23;12.90;81.80
15040;DHT22;7617;47.366;8.558;2024-01-30T14:22:51;13.00;81.50
15040;DHT22;7617;47.366;8.558;2024-01-30T14:25:20;13.00;81.20
15040;DHT22;7617;47.366;8.558;2024-01-30T14:27:50;13.00;81.60
15040;DHT22;7617;47.366;8.558;2024-01-30T14:30:18;13.00;81.60
15040;DHT22;7617;47.366;8.558;2024-01-30T14:32:46;13.10;81.80
15040;DHT22;7617;47.366;8.558;2024-01-30T14:35:16;13.10;81.60
15040;DHT22;7617;47.366;8.558;2024-01-30T14:37:44;13.10;82.10
15040;DHT22;7617;47.366;8.558;2024-01-30T14:40:12;13.10;81.90
15040;DHT22;7617;47.366;8.558;2024-01-30T14:42:40;13.10;81.80
15040;DHT22;7617;47.366;8.558;2024-01-30T14:45:09;13.10;81.50
15040;DHT22;7617;47.366;8.558;2024-01-30T14:47:38;13.10;81.90
15040;DHT22;7617;47.366;8.558;2024-01-30T14:50:08;13.10;82.10
15040;DHT22;7617;47.366;8.558;2024-01-30T14:52:37;13.10;82.20
15040;DHT22;7617;47.366;8.558;2024-01-30T14:55:07;13.00;82.40
15040;DHT22;7617;47.366;8.558;2024-01-30T14:57:36;13.00;83.00
15040;DHT22;7617;47.366;8.558;2024-01-30T15:00:05;13.00;83.50
15040;DHT22;7617;47.366;8.558;2024-01-30T15:02:35;12.90;83.60
15040;DHT22;7617;47.366;8.558;2024-01-30T15:05:04;12.80;83.80
15040;DHT22;7617;47.366;8.558;2024-01-30T15:07:32;12.80;84.50
15040;DHT22;7617;47.366;8.558;2024-01-30T15:10:07;12.80;84.80
15040;DHT22;7617;47.366;8.558;2024-01-30T15:12:37;12.80;85.20
15040;DHT22;7617;47.366;8.558;2024-01-30T15:15:07;12.70;84.60
15040;DHT22;7617;47.366;8.558;2024-01-30T15:17:38;12.70;85.20
15040;DHT22;7617;47.366;8.558;2024-01-30T15:20:07;12.70;84.70
15040;DHT22;7617;47.366;8.558;2024-01-30T15:22:36;12.60;84.60
15040;DHT22;7617;47.366;8.558;2024-01-30T15:25:07;12.50;84.50
15040;DHT22;7617;47.366;8.558;2024-01-30T15:27:35;12.50;85.00
15040;DHT22;7617;47.366;8.558;2024-01-30T15:30:04;12.50;85.40
15040;DHT22;7617;47.366;8.558;2024-01-30T15:32:32;12.50;85.90
15040;DHT22;7617;47.366;8.558;2024-01-30T15:35:01;12.50;86.10
15040;DHT22;7617;47.366;8.558;2024-01-30T15:37:31;12.40;86.60
15040;DHT22;7617;47.366;8.558;2024-01-30T15:39:59;12.40;86.60
15040;DHT22;7617;47.366;8.558;2024-01-30T15:42:28;12.30;86.50
15040;DHT22;7617;47.366;8.558;2024-01-30T15:44:56;12.20;86.10
15040;DHT22;7617;47.366;8.558;2024-01-30T15:47:25;12.10;85.70
15040;DHT22;7617;47.366;8.558;2024-01-30T15:49:53;13.90;86.40
15040;DHT22;7617;47.366;8.558;2024-01-30T15:52:23;12.00;85.20
15040;DHT22;7617;47.366;8.558;2024-01-30T15:54:51;11.90;85.40
15040;DHT22;7617;47.366;8.558;2024-01-30T15:57:19;11.80;85.70
15040;DHT22;7617;47.366;8.558;2024-01-30T15:59:47;11.70;85.70
15040;DHT22;7617;47.366;8.558;2024-01-30T16:02:16;11.60;85.90
15040;DHT22;7617;47.366;8.558;2024-01-30T16:04:45;11.60;86.40
15040;DHT22;7617;47.366;8.558;2024-01-30T16:07:13;11.50;86.70
15040;DHT22;7617;47.366;8.558;2024-01-30T16:09:43;11.40;87.00